Maran Canopus — SXUQ — position and weather

sailwx.info

Track history (hours):
 
Tides and Currents Weather Stations Pressure Air Temp Water Temp Dewpoint Dewpoint Depression Visibility Wind Speed Wind Dir Waves Ship Positions

Maran Canopus

Last reported at 2017-May-26 18:50 UTC. Time now 2017-May-30 05:24 UTC.
Position N 02°02' E 102°09'.

Length 333 m; draft 12 m.

Type: Tanker. MMSI: 240677000.

Date/timePositionNaut miles runAvg speedWind from/ knotsBaromVisibWave heightAir tempDewpointWater temp
2017-May-26 18:50N 02°02' E 102°09'615.8
2017-May-26 18:26N 01°58' E 102°14'615.3
2017-May-26 18:00N 01°54' E 102°20'815.4
2017-May-26 17:30N 01°51' E 102°27'714.8
2017-May-26 17:00N 01°48' E 102°33'714.4
2017-May-26 16:31N 01°45' E 102°40'813.8
2017-May-26 15:57N 01°41' E 102°47'4112.8
2017-May-26 12:47N 01°18' E 103°20'413.9
2017-May-26 12:30N 01°16' E 103°23'612.3
2017-May-26 12:00N 01°13' E 103°29'5 9.0
2017-May-26 11:30N 01°12' E 103°33'4 8.8
2017-May-26 11:00N 01°12' E 103°38'3 6.3
2017-May-26 10:30N 01°13' E 103°41'1 1.9
2017-May-26 10:00N 01°12' E 103°41'0 0.1
2017-May-26 09:30N 01°12' E 103°41'0 0.3
2017-May-26 09:00N 01°12' E 103°41'0 0.5
2017-May-26 08:30N 01°12' E 103°41'0 0.1
2017-May-26 07:54N 01°12' E 103°41'0 0.1
2017-May-26 07:30N 01°12' E 103°41'0 0.1
2017-May-26 07:00N 01°12' E 103°41'0 0.2
2017-May-26 06:30N 01°12' E 103°41'0 0.1
2017-May-26 06:00N 01°12' E 103°41'0 0.0
2017-May-26 05:30N 01°12' E 103°41'0 0.0
2017-May-26 05:00N 01°12' E 103°41'0 0.2
2017-May-26 04:30N 01°12' E 103°41'0 0.5
2017-May-26 04:00N 01°12' E 103°41'0 0.1
2017-May-26 03:30N 01°12' E 103°41'0 0.0
2017-May-26 02:57N 01°12' E 103°41'0 0.2
2017-May-26 02:27N 01°12' E 103°41'0 0.1
2017-May-26 02:00N 01°12' E 103°41'0 0.2
2017-May-26 01:30N 01°12' E 103°41'0 0.1
2017-May-26 01:00N 01°12' E 103°41'0 0.0
2017-May-26 00:27N 01°12' E 103°41'0 0.1
2017-May-26 00:00N 01°12' E 103°41'0 0.1
2017-May-25 23:27N 01°12' E 103°41'0 0.1
2017-May-25 23:00N 01°12' E 103°41'0 0.0
2017-May-25 22:30N 01°12' E 103°41'0 0.0
2017-May-25 21:57N 01°12' E 103°41'0 0.1
2017-May-25 21:27N 01°12' E 103°41'0 0.0
2017-May-25 20:54N 01°12' E 103°41'0 0.1
2017-May-25 20:27N 01°12' E 103°41'0 0.1
2017-May-25 19:57N 01°12' E 103°41'0 0.0
2017-May-25 19:27N 01°12' E 103°41'0 0.0
2017-May-25 19:00N 01°12' E 103°41'0 0.0
2017-May-25 18:30N 01°12' E 103°41'0 0.0
2017-May-25 17:57N 01°12' E 103°41'0 0.0
2017-May-25 17:24N 01°12' E 103°41'0 0.0
2017-May-25 17:00N 01°12' E 103°41'0 0.1
2017-May-25 16:30N 01°12' E 103°41'0 0.4
2017-May-25 15:57N 01°12' E 103°41'0 0.4
2017-May-25 15:27N 01°12' E 103°41'0 0.3
2017-May-25 14:54N 01°12' E 103°41'0 0.0
2017-May-25 13:57N 01°12' E 103°41'0 0.0
2017-May-25 13:30N 01°12' E 103°41'0 0.0
2017-May-25 12:57N 01°12' E 103°41'0 0.1
2017-May-25 12:27N 01°12' E 103°41'0 0.0
2017-May-25 11:54N 01°12' E 103°41'0 0.0
2017-May-25 11:30N 01°12' E 103°41'0 0.0
2017-May-25 10:51N 01°12' E 103°41'0 0.1
2017-May-25 10:30N 01°12' E 103°41'0 0.0
2017-May-25 09:57N 01°12' E 103°41'0 0.0
2017-May-25 09:30N 01°12' E 103°41'0 0.0
2017-May-25 08:57N 01°12' E 103°41'0 0.0
2017-May-25 08:30N 01°12' E 103°41'0 0.1
2017-May-25 08:00N 01°12' E 103°41'0 0.0
2017-May-25 07:27N 01°12' E 103°41'0 0.0
2017-May-25 06:57N 01°12' E 103°41'0 0.2
2017-May-25 06:30N 01°12' E 103°41'0 0.1
2017-May-25 06:00N 01°12' E 103°41'0 0.3
2017-May-25 05:27N 01°12' E 103°41'0 0.5
2017-May-25 04:54N 01°12' E 103°41'0 0.3
2017-May-25 04:24N 01°12' E 103°41'0 0.1
2017-May-25 03:57N 01°12' E 103°41'0 0.3
2017-May-25 03:30N 01°12' E 103°41'0 0.6
2017-May-25 03:00N 01°11' E 103°41'2 3.8
2017-May-25 02:30N 01°12' E 103°39'3 5.9
2017-May-25 02:00N 01°12' E 103°36'1 2.2
2017-May-25 01:30N 01°12' E 103°35'1 1.3
2017-May-25 01:00N 01°13' E 103°34'0 0.8
2017-May-25 00:30N 01°13' E 103°34'1 1.5
2017-May-25 00:00N 01°14' E 103°34'1 1.3
2017-May-24 23:30N 01°15' E 103°34'0 0.1
2017-May-24 23:00N 01°14' E 103°34'0 0.1
2017-May-24 22:29N 01°14' E 103°34'0 0.1
2017-May-24 21:56N 01°14' E 103°34'0 0.0
2017-May-24 21:29N 01°14' E 103°34'0 0.1
2017-May-24 20:56N 01°14' E 103°34'0 0.2
2017-May-24 20:29N 01°14' E 103°34'0 0.2
2017-May-24 19:56N 01°14' E 103°34'0 0.2
2017-May-24 19:23N 01°14' E 103°35'0 0.3
2017-May-24 18:56N 01°14' E 103°35'0 0.0
2017-May-24 18:20N 01°14' E 103°35'0 0.2
2017-May-24 17:56N 01°14' E 103°35'0 0.0
2017-May-24 17:29N 01°14' E 103°35'0 0.0
2017-May-24 16:50N 01°14' E 103°35'0 0.0
2017-May-24 16:23N 01°14' E 103°35'0 0.0
2017-May-24 15:53N 01°14' E 103°35'0 0.1
2017-May-24 12:20N 01°15' E 103°35'0 0.1
2017-May-24 11:14N 01°15' E 103°34'0 0.1
2017-May-24 09:41N 01°14' E 103°34'0 0.0
2017-May-24 09:26N 01°14' E 103°34'0 0.0
2017-May-24 07:20N 01°14' E 103°34'0 0.1
2017-May-24 01:20N 01°14' E 103°35'0 0.2
2017-May-23 23:26N 01°15' E 103°34'0 0.1
2017-May-23 21:41N 01°14' E 103°34'0 0.0
2017-May-23 21:26N 01°14' E 103°34'0 0.0
2017-May-23 20:53N 01°14' E 103°34'0 0.0
2017-May-23 20:26N 01°14' E 103°34'0 0.0
2017-May-23 19:50N 01°14' E 103°34'0 0.1
2017-May-23 19:26N 01°14' E 103°34'0 0.0
2017-May-23 18:56N 01°14' E 103°34'0 0.0
2017-May-23 18:29N 01°14' E 103°34'0 0.2
2017-May-23 17:50N 01°14' E 103°34'0 0.4
2017-May-23 17:29N 01°14' E 103°34'0 0.1
2017-May-23 16:53N 01°14' E 103°35'0 0.2
2017-May-23 16:29N 01°14' E 103°35'0 0.1
2017-May-23 15:56N 01°14' E 103°35'0 0.1
2017-May-23 15:29N 01°14' E 103°35'0 0.1
2017-May-23 14:59N 01°14' E 103°35'0 0.1
2017-May-23 14:17N 01°14' E 103°35'0 0.1
2017-May-23 13:26N 01°15' E 103°35'0 0.0
2017-May-23 12:56N 01°15' E 103°35'0 0.1
2017-May-23 12:20N 01°15' E 103°35'0 0.1
2017-May-23 11:53N 01°15' E 103°34'0 0.0
2017-May-23 11:26N 01°15' E 103°34'0 0.0
2017-May-23 10:59N 01°15' E 103°34'0 0.1
2017-May-23 10:29N 01°15' E 103°34'0 0.1
2017-May-23 09:53N 01°15' E 103°34'0 0.1
2017-May-23 09:26N 01°15' E 103°34'0 0.2
2017-May-23 08:50N 01°14' E 103°34'0 0.0
2017-May-23 08:26N 01°15' E 103°34'0 0.1
2017-May-23 07:59N 01°15' E 103°34'0 0.0
2017-May-23 07:26N 01°15' E 103°34'0 0.0
2017-May-23 06:56N 01°15' E 103°34'0 0.0
2017-May-23 06:26N 01°15' E 103°34'0 0.1
2017-May-23 05:56N 01°15' E 103°34'0 0.1
2017-May-23 05:23N 01°15' E 103°34'0 0.0
2017-May-23 04:53N 01°15' E 103°34'0 0.1
2017-May-23 04:26N 01°15' E 103°34'0 0.1
2017-May-23 03:47N 01°15' E 103°35'0 0.1
2017-May-23 03:20N 01°15' E 103°35'0 0.0
2017-May-23 02:56N 01°15' E 103°35'0 0.0
2017-May-23 02:14N 01°15' E 103°35'0 0.0
2017-May-23 01:53N 01°15' E 103°35'0 0.1
2017-May-23 01:26N 01°15' E 103°35'0 0.0
2017-May-23 00:56N 01°15' E 103°35'0 0.1
2017-May-23 00:23N 01°15' E 103°34'0 0.0
2017-May-22 23:56N 01°15' E 103°34'0 0.0
2017-May-22 23:26N 01°15' E 103°34'0 0.0
2017-May-22 22:59N 01°15' E 103°34'0 0.0
2017-May-22 22:29N 01°15' E 103°34'0 0.1
2017-May-22 21:56N 01°15' E 103°34'0 0.0
2017-May-22 21:26N 01°15' E 103°34'0 0.1
2017-May-22 20:59N 01°15' E 103°34'0 0.1
2017-May-22 19:47N 01°15' E 103°34'0 0.1
2017-May-22 19:29N 01°14' E 103°34'0 0.1
2017-May-22 18:56N 01°14' E 103°34'0 0.0
2017-May-22 18:29N 01°14' E 103°34'0 0.1
2017-May-22 17:59N 01°14' E 103°34'0 0.0
2017-May-22 17:26N 01°14' E 103°34'0 0.0
2017-May-22 16:59N 01°14' E 103°34'0 0.1
2017-May-22 16:26N 01°14' E 103°34'0 0.2
2017-May-22 15:53N 01°14' E 103°34'0 0.2
2017-May-22 15:26N 01°14' E 103°34'0 0.2
2017-May-22 14:59N 01°14' E 103°34'0 0.2
2017-May-22 13:47N 01°14' E 103°35'0 0.0
2017-May-22 13:29N 01°14' E 103°35'0 0.1
2017-May-22 12:59N 01°14' E 103°35'0 0.4
2017-May-22 12:26N 01°14' E 103°35'0 0.5
2017-May-22 11:56N 01°15' E 103°35'0 0.2
2017-May-22 11:20N 01°14' E 103°34'0 0.2
2017-May-22 10:59N 01°14' E 103°34'0 0.1
2017-May-22 10:23N 01°14' E 103°34'0 0.1
2017-May-22 09:59N 01°14' E 103°34'0 0.0
2017-May-22 09:26N 01°14' E 103°34'0 0.0
2017-May-22 08:59N 01°14' E 103°34'0 0.0
2017-May-22 08:23N 01°14' E 103°34'0 0.0
2017-May-22 07:56N 01°14' E 103°34'0 0.0
2017-May-22 07:29N 01°14' E 103°34'0 0.1
2017-May-22 06:59N 01°14' E 103°34'0 0.0
2017-May-22 06:23N 01°15' E 103°34'0 0.0
2017-May-22 05:56N 01°14' E 103°34'0 0.0
2017-May-22 05:26N 01°14' E 103°34'0 0.0
2017-May-22 04:59N 01°15' E 103°34'0 0.2
2017-May-22 04:23N 01°14' E 103°34'0 0.4
2017-May-22 03:59N 01°14' E 103°34'0 0.2
2017-May-22 03:26N 01°14' E 103°35'0 0.1
2017-May-22 02:56N 01°14' E 103°35'0 0.1
2017-May-22 02:26N 01°14' E 103°35'0 0.0
2017-May-22 01:56N 01°14' E 103°35'0 0.1
2017-May-22 01:26N 01°14' E 103°35'0 0.5
2017-May-22 00:47N 01°15' E 103°35'0 0.2
2017-May-22 00:30N 01°15' E 103°35'0 0.1
2017-May-22 00:00N 01°15' E 103°34'0 0.2
2017-May-21 23:30N 01°15' E 103°34'0 0.5
2017-May-21 23:01N 01°15' E 103°34'1 1.9
2017-May-21 22:30N 01°14' E 103°34'2 3.4
2017-May-21 22:00N 01°12' E 103°34'2 3.3
2017-May-21 21:30N 01°12' E 103°35'2 4.8
2017-May-21 20:59N 01°11' E 103°38'3 6.4
2017-May-21 20:30N 01°10' E 103°41'4 7.9
2017-May-21 20:00N 01°09' E 103°45'510.2
2017-May-21 19:30N 01°11' E 103°49'510.2
2017-May-21 19:00N 01°13' E 103°54'5 9.9
2017-May-21 18:30N 01°15' E 103°58'5 9.8
2017-May-21 17:59N 01°16' E 104°03'  
2017-May-17 07:47N 01°15' E 104°06'411.5
2017-May-17 07:27N 01°14' E 104°02'4 7.8
2017-May-17 06:59N 01°14' E 103°59'5 9.8
2017-May-17 06:30N 01°13' E 103°54'612.1
2017-May-17 06:00N 01°10' E 103°49'611.9
2017-May-17 05:30N 01°06' E 103°44'612.2
2017-May-17 05:00N 01°03' E 103°39'611.8
2017-May-17 04:30N 01°06' E 103°34'5 9.8
2017-May-17 04:00N 01°11' E 103°33'3 6.2
2017-May-17 03:30N 01°14' E 103°34'1 1.4
2017-May-17 03:00N 01°15' E 103°35'0 0.1
2017-May-17 02:27N 01°15' E 103°34'0 0.1
2017-May-17 02:00N 01°15' E 103°34'0 0.0
2017-May-17 01:27N 01°15' E 103°34'0 0.0
2017-May-17 00:57N 01°15' E 103°34'0 0.0
2017-May-17 00:30N 01°15' E 103°34'0 0.0
2017-May-17 00:00N 01°15' E 103°34'0 0.2
2017-May-16 23:21N 01°15' E 103°35'0 0.1
2017-May-16 22:48N 01°15' E 103°35'0 0.0
2017-May-16 22:24N 01°15' E 103°35'0 0.0
2017-May-16 21:54N 01°15' E 103°35'0 0.0
2017-May-16 21:27N 01°15' E 103°35'0 0.0
2017-May-16 20:51N 01°14' E 103°35'0 0.2
2017-May-16 20:27N 01°14' E 103°35'0 0.0
2017-May-16 19:57N 01°14' E 103°35'0 0.1
2017-May-16 19:24N 01°15' E 103°35'0 0.1
2017-May-16 18:57N 01°15' E 103°35'  
Track history (hours):
 
Tides and Currents Weather Stations Pressure Air Temp Water Temp Dewpoint Dewpoint Depression Visibility Wind Speed Wind Dir Waves Ship Positions

Maran Canopus

Last reported at 2017-May-26 18:50 UTC. Time now 2017-May-30 05:24 UTC.
Position N 02°02' E 102°09'.

Length 333 m; draft 12 m.

Type: Tanker. MMSI: 240677000.

Date/timePositionNaut miles runAvg speedWind from/ knotsBaromVisibWave heightAir tempDewpointWater temp
2017-May-26 18:50N 02°02' E 102°09'615.8
2017-May-26 18:26N 01°58' E 102°14'615.3
2017-May-26 18:00N 01°54' E 102°20'815.4
2017-May-26 17:30N 01°51' E 102°27'714.8
2017-May-26 17:00N 01°48' E 102°33'714.4
2017-May-26 16:31N 01°45' E 102°40'813.8
2017-May-26 15:57N 01°41' E 102°47'4112.8
2017-May-26 12:47N 01°18' E 103°20'413.9
2017-May-26 12:30N 01°16' E 103°23'612.3
2017-May-26 12:00N 01°13' E 103°29'5 9.0
2017-May-26 11:30N 01°12' E 103°33'4 8.8
2017-May-26 11:00N 01°12' E 103°38'3 6.3
2017-May-26 10:30N 01°13' E 103°41'1 1.9
2017-May-26 10:00N 01°12' E 103°41'0 0.1
2017-May-26 09:30N 01°12' E 103°41'0 0.3
2017-May-26 09:00N 01°12' E 103°41'0 0.5
2017-May-26 08:30N 01°12' E 103°41'0 0.1
2017-May-26 07:54N 01°12' E 103°41'0 0.1
2017-May-26 07:30N 01°12' E 103°41'0 0.1
2017-May-26 07:00N 01°12' E 103°41'0 0.2
2017-May-26 06:30N 01°12' E 103°41'0 0.1
2017-May-26 06:00N 01°12' E 103°41'0 0.0
2017-May-26 05:30N 01°12' E 103°41'0 0.0
2017-May-26 05:00N 01°12' E 103°41'0 0.2
2017-May-26 04:30N 01°12' E 103°41'0 0.5
2017-May-26 04:00N 01°12' E 103°41'0 0.1
2017-May-26 03:30N 01°12' E 103°41'0 0.0
2017-May-26 02:57N 01°12' E 103°41'0 0.2
2017-May-26 02:27N 01°12' E 103°41'0 0.1
2017-May-26 02:00N 01°12' E 103°41'0 0.2
2017-May-26 01:30N 01°12' E 103°41'0 0.1
2017-May-26 01:00N 01°12' E 103°41'0 0.0
2017-May-26 00:27N 01°12' E 103°41'0 0.1
2017-May-26 00:00N 01°12' E 103°41'0 0.1
2017-May-25 23:27N 01°12' E 103°41'0 0.1
2017-May-25 23:00N 01°12' E 103°41'0 0.0
2017-May-25 22:30N 01°12' E 103°41'0 0.0
2017-May-25 21:57N 01°12' E 103°41'0 0.1
2017-May-25 21:27N 01°12' E 103°41'0 0.0
2017-May-25 20:54N 01°12' E 103°41'0 0.1
2017-May-25 20:27N 01°12' E 103°41'0 0.1
2017-May-25 19:57N 01°12' E 103°41'0 0.0
2017-May-25 19:27N 01°12' E 103°41'0 0.0
2017-May-25 19:00N 01°12' E 103°41'0 0.0
2017-May-25 18:30N 01°12' E 103°41'0 0.0
2017-May-25 17:57N 01°12' E 103°41'0 0.0
2017-May-25 17:24N 01°12' E 103°41'0 0.0
2017-May-25 17:00N 01°12' E 103°41'0 0.1
2017-May-25 16:30N 01°12' E 103°41'0 0.4
2017-May-25 15:57N 01°12' E 103°41'0 0.4
2017-May-25 15:27N 01°12' E 103°41'0 0.3
2017-May-25 14:54N 01°12' E 103°41'0 0.0
2017-May-25 13:57N 01°12' E 103°41'0 0.0
2017-May-25 13:30N 01°12' E 103°41'0 0.0
2017-May-25 12:57N 01°12' E 103°41'0 0.1
2017-May-25 12:27N 01°12' E 103°41'0 0.0
2017-May-25 11:54N 01°12' E 103°41'0 0.0
2017-May-25 11:30N 01°12' E 103°41'0 0.0
2017-May-25 10:51N 01°12' E 103°41'0 0.1
2017-May-25 10:30N 01°12' E 103°41'0 0.0
2017-May-25 09:57N 01°12' E 103°41'0 0.0
2017-May-25 09:30N 01°12' E 103°41'0 0.0
2017-May-25 08:57N 01°12' E 103°41'0 0.0
2017-May-25 08:30N 01°12' E 103°41'0 0.1
2017-May-25 08:00N 01°12' E 103°41'0 0.0
2017-May-25 07:27N 01°12' E 103°41'0 0.0
2017-May-25 06:57N 01°12' E 103°41'0 0.2
2017-May-25 06:30N 01°12' E 103°41'0 0.1
2017-May-25 06:00N 01°12' E 103°41'0 0.3
2017-May-25 05:27N 01°12' E 103°41'0 0.5
2017-May-25 04:54N 01°12' E 103°41'0 0.3
2017-May-25 04:24N 01°12' E 103°41'0 0.1
2017-May-25 03:57N 01°12' E 103°41'0 0.3
2017-May-25 03:30N 01°12' E 103°41'0 0.6
2017-May-25 03:00N 01°11' E 103°41'2 3.8
2017-May-25 02:30N 01°12' E 103°39'3 5.9
2017-May-25 02:00N 01°12' E 103°36'1 2.2
2017-May-25 01:30N 01°12' E 103°35'1 1.3
2017-May-25 01:00N 01°13' E 103°34'0 0.8
2017-May-25 00:30N 01°13' E 103°34'1 1.5
2017-May-25 00:00N 01°14' E 103°34'1 1.3
2017-May-24 23:30N 01°15' E 103°34'0 0.1
2017-May-24 23:00N 01°14' E 103°34'0 0.1
2017-May-24 22:29N 01°14' E 103°34'0 0.1
2017-May-24 21:56N 01°14' E 103°34'0 0.0
2017-May-24 21:29N 01°14' E 103°34'0 0.1
2017-May-24 20:56N 01°14' E 103°34'0 0.2
2017-May-24 20:29N 01°14' E 103°34'0 0.2
2017-May-24 19:56N 01°14' E 103°34'0 0.2
2017-May-24 19:23N 01°14' E 103°35'0 0.3
2017-May-24 18:56N 01°14' E 103°35'0 0.0
2017-May-24 18:20N 01°14' E 103°35'0 0.2
2017-May-24 17:56N 01°14' E 103°35'0 0.0
2017-May-24 17:29N 01°14' E 103°35'0 0.0
2017-May-24 16:50N 01°14' E 103°35'0 0.0
2017-May-24 16:23N 01°14' E 103°35'0 0.0
2017-May-24 15:53N 01°14' E 103°35'0 0.1
2017-May-24 12:20N 01°15' E 103°35'0 0.1
2017-May-24 11:14N 01°15' E 103°34'0 0.1
2017-May-24 09:41N 01°14' E 103°34'0 0.0
2017-May-24 09:26N 01°14' E 103°34'0 0.0
2017-May-24 07:20N 01°14' E 103°34'0 0.1
2017-May-24 01:20N 01°14' E 103°35'0 0.2
2017-May-23 23:26N 01°15' E 103°34'0 0.1
2017-May-23 21:41N 01°14' E 103°34'0 0.0
2017-May-23 21:26N 01°14' E 103°34'0 0.0
2017-May-23 20:53N 01°14' E 103°34'0 0.0
2017-May-23 20:26N 01°14' E 103°34'0 0.0
2017-May-23 19:50N 01°14' E 103°34'0 0.1
2017-May-23 19:26N 01°14' E 103°34'0 0.0
2017-May-23 18:56N 01°14' E 103°34'0 0.0
2017-May-23 18:29N 01°14' E 103°34'0 0.2
2017-May-23 17:50N 01°14' E 103°34'0 0.4
2017-May-23 17:29N 01°14' E 103°34'0 0.1
2017-May-23 16:53N 01°14' E 103°35'0 0.2
2017-May-23 16:29N 01°14' E 103°35'0 0.1
2017-May-23 15:56N 01°14' E 103°35'0 0.1
2017-May-23 15:29N 01°14' E 103°35'0 0.1
2017-May-23 14:59N 01°14' E 103°35'0 0.1
2017-May-23 14:17N 01°14' E 103°35'0 0.1
2017-May-23 13:26N 01°15' E 103°35'0 0.0
2017-May-23 12:56N 01°15' E 103°35'0 0.1
2017-May-23 12:20N 01°15' E 103°35'0 0.1
2017-May-23 11:53N 01°15' E 103°34'0 0.0
2017-May-23 11:26N 01°15' E 103°34'0 0.0
2017-May-23 10:59N 01°15' E 103°34'0 0.1
2017-May-23 10:29N 01°15' E 103°34'0 0.1
2017-May-23 09:53N 01°15' E 103°34'0 0.1
2017-May-23 09:26N 01°15' E 103°34'0 0.2
2017-May-23 08:50N 01°14' E 103°34'0 0.0
2017-May-23 08:26N 01°15' E 103°34'0 0.1
2017-May-23 07:59N 01°15' E 103°34'0 0.0
2017-May-23 07:26N 01°15' E 103°34'0 0.0
2017-May-23 06:56N 01°15' E 103°34'0 0.0
2017-May-23 06:26N 01°15' E 103°34'0 0.1
2017-May-23 05:56N 01°15' E 103°34'0 0.1
2017-May-23 05:23N 01°15' E 103°34'0 0.0
2017-May-23 04:53N 01°15' E 103°34'0 0.1
2017-May-23 04:26N 01°15' E 103°34'0 0.1
2017-May-23 03:47N 01°15' E 103°35'0 0.1
2017-May-23 03:20N 01°15' E 103°35'0 0.0
2017-May-23 02:56N 01°15' E 103°35'0 0.0
2017-May-23 02:14N 01°15' E 103°35'0 0.0
2017-May-23 01:53N 01°15' E 103°35'0 0.1
2017-May-23 01:26N 01°15' E 103°35'0 0.0
2017-May-23 00:56N 01°15' E 103°35'0 0.1
2017-May-23 00:23N 01°15' E 103°34'0 0.0
2017-May-22 23:56N 01°15' E 103°34'0 0.0
2017-May-22 23:26N 01°15' E 103°34'0 0.0
2017-May-22 22:59N 01°15' E 103°34'0 0.0
2017-May-22 22:29N 01°15' E 103°34'0 0.1
2017-May-22 21:56N 01°15' E 103°34'0 0.0
2017-May-22 21:26N 01°15' E 103°34'0 0.1
2017-May-22 20:59N 01°15' E 103°34'0 0.1
2017-May-22 19:47N 01°15' E 103°34'0 0.1
2017-May-22 19:29N 01°14' E 103°34'0 0.1
2017-May-22 18:56N 01°14' E 103°34'0 0.0
2017-May-22 18:29N 01°14' E 103°34'0 0.1
2017-May-22 17:59N 01°14' E 103°34'0 0.0
2017-May-22 17:26N 01°14' E 103°34'0 0.0
2017-May-22 16:59N 01°14' E 103°34'0 0.1
2017-May-22 16:26N 01°14' E 103°34'0 0.2
2017-May-22 15:53N 01°14' E 103°34'0 0.2
2017-May-22 15:26N 01°14' E 103°34'0 0.2
2017-May-22 14:59N 01°14' E 103°34'0 0.2
2017-May-22 13:47N 01°14' E 103°35'0 0.0
2017-May-22 13:29N 01°14' E 103°35'0 0.1
2017-May-22 12:59N 01°14' E 103°35'0 0.4
2017-May-22 12:26N 01°14' E 103°35'0 0.5
2017-May-22 11:56N 01°15' E 103°35'0 0.2
2017-May-22 11:20N 01°14' E 103°34'0 0.2
2017-May-22 10:59N 01°14' E 103°34'0 0.1
2017-May-22 10:23N 01°14' E 103°34'0 0.1
2017-May-22 09:59N 01°14' E 103°34'0 0.0
2017-May-22 09:26N 01°14' E 103°34'0 0.0
2017-May-22 08:59N 01°14' E 103°34'0 0.0
2017-May-22 08:23N 01°14' E 103°34'0 0.0
2017-May-22 07:56N 01°14' E 103°34'0 0.0
2017-May-22 07:29N 01°14' E 103°34'0 0.1
2017-May-22 06:59N 01°14' E 103°34'0 0.0
2017-May-22 06:23N 01°15' E 103°34'0 0.0
2017-May-22 05:56N 01°14' E 103°34'0 0.0
2017-May-22 05:26N 01°14' E 103°34'0 0.0
2017-May-22 04:59N 01°15' E 103°34'0 0.2
2017-May-22 04:23N 01°14' E 103°34'0 0.4
2017-May-22 03:59N 01°14' E 103°34'0 0.2
2017-May-22 03:26N 01°14' E 103°35'0 0.1
2017-May-22 02:56N 01°14' E 103°35'0 0.1
2017-May-22 02:26N 01°14' E 103°35'0 0.0
2017-May-22 01:56N 01°14' E 103°35'0 0.1
2017-May-22 01:26N 01°14' E 103°35'0 0.5
2017-May-22 00:47N 01°15' E 103°35'0 0.2
2017-May-22 00:30N 01°15' E 103°35'0 0.1
2017-May-22 00:00N 01°15' E 103°34'0 0.2
2017-May-21 23:30N 01°15' E 103°34'0 0.5
2017-May-21 23:01N 01°15' E 103°34'1 1.9
2017-May-21 22:30N 01°14' E 103°34'2 3.4
2017-May-21 22:00N 01°12' E 103°34'2 3.3
2017-May-21 21:30N 01°12' E 103°35'2 4.8
2017-May-21 20:59N 01°11' E 103°38'3 6.4
2017-May-21 20:30N 01°10' E 103°41'4 7.9
2017-May-21 20:00N 01°09' E 103°45'510.2
2017-May-21 19:30N 01°11' E 103°49'510.2
2017-May-21 19:00N 01°13' E 103°54'5 9.9
2017-May-21 18:30N 01°15' E 103°58'5 9.8
2017-May-21 17:59N 01°16' E 104°03'  
2017-May-17 07:47N 01°15' E 104°06'411.5
2017-May-17 07:27N 01°14' E 104°02'4 7.8
2017-May-17 06:59N 01°14' E 103°59'5 9.8
2017-May-17 06:30N 01°13' E 103°54'612.1
2017-May-17 06:00N 01°10' E 103°49'611.9
2017-May-17 05:30N 01°06' E 103°44'612.2
2017-May-17 05:00N 01°03' E 103°39'611.8
2017-May-17 04:30N 01°06' E 103°34'5 9.8
2017-May-17 04:00N 01°11' E 103°33'3 6.2
2017-May-17 03:30N 01°14' E 103°34'1 1.4
2017-May-17 03:00N 01°15' E 103°35'0 0.1
2017-May-17 02:27N 01°15' E 103°34'0 0.1
2017-May-17 02:00N 01°15' E 103°34'0 0.0
2017-May-17 01:27N 01°15' E 103°34'0 0.0
2017-May-17 00:57N 01°15' E 103°34'0 0.0
2017-May-17 00:30N 01°15' E 103°34'0 0.0
2017-May-17 00:00N 01°15' E 103°34'0 0.2
2017-May-16 23:21N 01°15' E 103°35'0 0.1
2017-May-16 22:48N 01°15' E 103°35'0 0.0
2017-May-16 22:24N 01°15' E 103°35'0 0.0
2017-May-16 21:54N 01°15' E 103°35'0 0.0
2017-May-16 21:27N 01°15' E 103°35'0 0.0
2017-May-16 20:51N 01°14' E 103°35'0 0.2
2017-May-16 20:27N 01°14' E 103°35'0 0.0
2017-May-16 19:57N 01°14' E 103°35'0 0.1
2017-May-16 19:24N 01°15' E 103°35'0 0.1
2017-May-16 18:57N 01°15' E 103°35'  

Dump ship's entire track history